Time;durP1;ratioP1;P1;durP2;ratioP2;P2;SDS_P1;SDS_P2;PMS_P1;PMS_P2;Temp;Humidity;BMP_temperature;BMP_pressure;BME280_temperature;BME280_humidity;BME280_pressure;Samples;Min_cycle;Max_cycle;Signal;HPM_P1;HPM_P2
2022/10/12 00:02:13;;;;;;;4.50;2.40;;;16.00;67.10;;;;;;10363837;28;20105;-59
2022/10/12 00:07:14;;;;;;;2.90;1.30;;;16.00;67.00;;;;;;10364350;28;20061;-58
2022/10/12 00:12:15;;;;;;;2.67;1.30;;;15.90;66.90;;;;;;10376556;28;20125;-59
2022/10/12 00:17:15;;;;;;;2.88;1.40;;;15.90;66.90;;;;;;10364512;28;20645;-59
2022/10/12 00:22:16;;;;;;;2.65;1.20;;;15.90;66.90;;;;;;10364465;28;20101;-59
2022/10/12 00:27:17;;;;;;;5.70;1.77;;;15.90;66.80;;;;;;10364028;28;20014;-59
2022/10/12 00:32:17;;;;;;;3.90;1.63;;;15.90;66.80;;;;;;10363974;28;20104;-59
2022/10/12 00:37:18;;;;;;;2.55;1.33;;;15.90;66.80;;;;;;10363659;28;20069;-58
2022/10/12 00:42:20;;;;;;;3.15;1.30;;;15.90;66.70;;;;;;10361882;28;20046;-59
2022/10/12 00:47:31;;;;;;;3.05;1.30;;;15.90;66.70;;;;;;10362471;28;20026;-59
2022/10/12 00:52:54;;;;;;;3.83;1.33;;;15.90;66.60;;;;;;10362302;28;20121;-59
2022/10/12 00:57:55;;;;;;;3.28;1.75;;;15.90;66.60;;;;;;10364541;28;20042;-59
2022/10/12 01:02:57;;;;;;;3.60;1.33;;;15.90;66.50;;;;;;10361438;28;20120;-59
2022/10/12 01:07:59;;;;;;;2.67;1.42;;;15.80;66.40;;;;;;10361791;28;20030;-59
2022/10/12 01:13:00;;;;;;;3.20;1.55;;;15.80;66.20;;;;;;10362106;28;21612;-58
2022/10/12 01:18:20;;;;;;;3.15;1.45;;;15.90;66.40;;;;;;10363055;28;20075;-58
2022/10/12 01:24:12;;;;;;;3.50;1.58;;;15.80;66.50;;;;;;10362084;28;20471;-59
2022/10/12 01:29:57;;;;;;;4.88;1.50;;;15.80;66.40;;;;;;10362003;28;20022;-58
2022/10/12 01:35:32;;;;;;;3.05;1.20;;;15.80;66.40;;;;;;10361220;28;20041;-58
2022/10/12 01:40:46;;;;;;;2.65;1.20;;;15.80;66.20;;;;;;10362748;28;20103;-58
2022/10/12 01:45:47;;;;;;;3.47;1.33;;;15.80;66.10;;;;;;10361284;28;20022;-58
2022/10/12 01:50:55;;;;;;;5.45;1.95;;;15.80;66.00;;;;;;10375900;28;20088;-59
2022/10/12 01:56:15;;;;;;;2.60;1.13;;;15.80;66.10;;;;;;10366888;28;20033;-59
2022/10/12 02:01:33;;;;;;;2.95;1.65;;;15.80;65.90;;;;;;10356586;28;20033;-59
2022/10/12 02:06:48;;;;;;;2.75;1.50;;;15.80;65.90;;;;;;10367527;28;20424;-59
2022/10/12 02:11:53;;;;;;;3.92;1.25;;;15.80;65.90;;;;;;10365816;28;20018;-59
2022/10/12 02:17:04;;;;;;;4.40;1.75;;;15.70;65.70;;;;;;10367267;28;20030;-58
2022/10/12 02:22:07;;;;;;;3.60;1.75;;;15.70;65.60;;;;;;10368586;28;20022;-57
2022/10/12 02:27:11;;;;;;;3.42;1.80;;;15.70;65.60;;;;;;10367847;28;20103;-58
2022/10/12 02:32:34;;;;;;;4.07;1.40;;;15.70;65.60;;;;;;10367284;28;20513;-58
2022/10/12 02:37:51;;;;;;;2.72;1.10;;;15.70;65.30;;;;;;10360641;28;20061;-59
2022/10/12 02:43:16;;;;;;;3.60;1.58;;;15.70;65.40;;;;;;10366700;28;20129;-58
2022/10/12 02:48:22;;;;;;;3.25;1.80;;;15.70;65.40;;;;;;10366916;28;20026;-58
2022/10/12 02:53:25;;;;;;;3.13;1.30;;;15.70;65.40;;;;;;10366156;28;20029;-58
2022/10/12 02:58:25;;;;;;;2.20;1.30;;;15.70;65.50;;;;;;10367701;28;20070;-58
2022/10/12 03:03:26;;;;;;;2.45;1.40;;;15.70;65.30;;;;;;10366663;28;20418;-59
2022/10/12 03:08:27;;;;;;;4.20;1.33;;;15.70;65.40;;;;;;10366027;28;20021;-58
2022/10/12 03:13:28;;;;;;;2.13;1.40;;;15.60;65.30;;;;;;10365640;28;20042;-58
2022/10/12 03:18:29;;;;;;;1.42;1.05;;;15.70;65.30;;;;;;10365356;28;20065;-59
2022/10/12 03:23:30;;;;;;;2.97;1.40;;;15.60;65.10;;;;;;10365786;28;20072;-58
2022/10/12 03:28:31;;;;;;;2.67;1.25;;;15.70;65.60;;;;;;10366736;28;20026;-58
2022/10/12 03:33:32;;;;;;;8.32;2.20;;;15.70;66.20;;;;;;10362344;28;20029;-58
2022/10/12 03:38:32;;;;;;;4.68;2.95;;;15.70;66.00;;;;;;10361575;28;20034;-58
2022/10/12 03:43:34;;;;;;;3.25;1.50;;;15.70;65.90;;;;;;10358612;28;20096;-57
2022/10/12 03:48:34;;;;;;;2.63;1.60;;;15.60;66.00;;;;;;10360859;28;20030;-58
2022/10/12 03:53:35;;;;;;;2.78;1.67;;;15.60;65.70;;;;;;10359890;28;20057;-58
2022/10/12 03:58:36;;;;;;;3.30;1.55;;;15.60;65.60;;;;;;10362883;28;20045;-58
2022/10/12 04:03:36;;;;;;;4.07;1.60;;;15.60;65.70;;;;;;10361019;28;20093;-58
2022/10/12 04:08:37;;;;;;;2.10;1.10;;;15.60;65.70;;;;;;10365228;28;20026;-58
2022/10/12 04:13:38;;;;;;;2.55;1.77;;;15.60;65.50;;;;;;10369848;28;20073;-58
2022/10/12 04:18:38;;;;;;;3.33;1.40;;;15.60;65.40;;;;;;10363122;28;20092;-58
2022/10/12 04:23:40;;;;;;;3.85;1.27;;;15.60;65.20;;;;;;10366618;28;20108;-59
2022/10/12 04:28:41;;;;;;;2.25;1.30;;;15.60;65.20;;;;;;10363472;28;20541;-58
2022/10/12 04:33:42;;;;;;;2.63;1.33;;;15.60;65.10;;;;;;10369706;28;20025;-56
2022/10/12 04:38:42;;;;;;;2.50;1.60;;;15.60;65.80;;;;;;10379361;28;20061;-58
2022/10/12 04:43:43;;;;;;;3.20;1.42;;;15.50;65.10;;;;;;10363728;28;20474;-58
2022/10/12 04:48:44;;;;;;;2.33;1.20;;;15.50;65.10;;;;;;10376197;28;20061;-57
2022/10/12 04:53:45;;;;;;;4.65;1.50;;;15.50;65.10;;;;;;10363435;28;20053;-58
2022/10/12 04:58:45;;;;;;;2.70;1.35;;;15.50;65.10;;;;;;10374078;28;20029;-58
2022/10/12 05:03:46;;;;;;;5.63;3.05;;;15.50;64.90;;;;;;10367194;28;20060;-59
2022/10/12 05:08:47;;;;;;;6.25;3.33;;;15.50;65.70;;;;;;10364647;28;20660;-59
2022/10/12 05:13:47;;;;;;;6.85;2.70;;;15.60;65.40;;;;;;10362758;28;20041;-59
2022/10/12 05:18:48;;;;;;;5.90;2.53;;;15.60;65.50;;;;;;10363077;28;20115;-57
2022/10/12 05:23:50;;;;;;;5.93;2.97;;;15.70;65.60;;;;;;10345402;28;20085;-56
2022/10/12 05:28:51;;;;;;;7.32;3.13;;;15.70;65.80;;;;;;10368673;28;20053;-56
2022/10/12 05:33:51;;;;;;;9.90;3.30;;;15.70;65.60;;;;;;10397049;28;20018;-60
2022/10/12 05:38:52;;;;;;;7.80;3.58;;;15.70;65.80;;;;;;10371029;28;20032;-60
2022/10/12 05:43:53;;;;;;;8.38;3.05;;;15.70;65.80;;;;;;10374483;28;20197;-60
2022/10/12 05:48:53;;;;;;;7.80;2.53;;;15.70;65.80;;;;;;10367829;28;20061;-61
2022/10/12 05:53:54;;;;;;;12.98;3.08;;;15.60;65.80;;;;;;10375448;28;20096;-59
2022/10/12 05:58:55;;;;;;;10.82;3.20;;;15.70;66.00;;;;;;10377627;28;20113;-60
2022/10/12 06:03:55;;;;;;;10.80;3.95;;;15.60;65.60;;;;;;10368252;28;20022;-60
2022/10/12 06:08:56;;;;;;;8.75;3.25;;;15.60;65.70;;;;;;10368578;28;20308;-60
2022/10/12 06:13:57;;;;;;;11.02;3.45;;;15.50;65.80;;;;;;10367756;28;20053;-59
2022/10/12 06:18:58;;;;;;;8.43;3.80;;;15.60;65.70;;;;;;10369429;28;20030;-59
2022/10/12 06:23:59;;;;;;;12.77;3.83;;;15.60;65.70;;;;;;10370754;28;20029;-59
2022/10/12 06:28:59;;;;;;;4.57;2.55;;;15.50;65.70;;;;;;10380203;28;20105;-58
2022/10/12 06:34:00;;;;;;;8.48;3.17;;;15.50;65.60;;;;;;10363533;28;20323;-57
2022/10/12 06:39:01;;;;;;;6.80;3.10;;;15.40;65.30;;;;;;10380632;28;20034;-59
2022/10/12 06:44:02;;;;;;;8.82;3.55;;;15.50;65.40;;;;;;10365791;28;20038;-58
2022/10/12 06:49:02;;;;;;;11.10;3.15;;;15.50;65.50;;;;;;10380038;28;20101;-60
2022/10/12 06:54:03;;;;;;;6.15;2.38;;;15.50;65.30;;;;;;10368311;28;20817;-58
2022/10/12 06:59:04;;;;;;;10.77;2.60;;;15.60;65.00;;;;;;10366767;28;20088;-57
2022/10/12 07:04:05;;;;;;;15.98;3.67;;;15.80;63.90;;;;;;10365205;28;20049;-59
2022/10/12 07:09:06;;;;;;;9.40;2.78;;;15.80;64.20;;;;;;10349552;28;20033;-59
2022/10/12 07:14:07;;;;;;;8.18;2.72;;;15.70;64.10;;;;;;10366939;28;20026;-57
2022/10/12 07:19:07;;;;;;;15.68;2.90;;;15.60;64.90;;;;;;10365710;28;20481;-58
2022/10/12 07:24:11;;;;;;;12.48;2.55;;;15.60;65.30;;;;;;10367615;28;20101;-58
2022/10/12 07:29:12;;;;;;;12.95;3.13;;;15.60;65.50;;;;;;10369987;28;20047;-57
2022/10/12 07:34:12;;;;;;;11.23;2.53;;;15.60;65.20;;;;;;10372552;28;20022;-58
2022/10/12 07:39:13;;;;;;;17.17;3.78;;;15.50;65.30;;;;;;10363820;28;20126;-57
2022/10/12 07:44:14;;;;;;;10.98;2.53;;;15.50;64.70;;;;;;10363154;28;20041;-58
2022/10/12 07:49:16;;;;;;;14.68;3.13;;;15.50;65.10;;;;;;10363106;28;20029;-58
2022/10/12 07:54:17;;;;;;;18.27;4.40;;;15.50;64.80;;;;;;10361212;28;20026;-58
2022/10/12 07:59:17;;;;;;;9.27;3.00;;;15.50;64.50;;;;;;10359188;28;20379;-58
2022/10/12 08:04:18;;;;;;;7.10;2.67;;;15.40;64.60;;;;;;10360806;28;20101;-56
2022/10/12 08:09:19;;;;;;;9.80;2.75;;;15.40;64.70;;;;;;10360146;28;20108;-58
2022/10/12 08:14:19;;;;;;;8.77;2.70;;;15.40;64.60;;;;;;10360994;28;20338;-58
2022/10/12 08:19:20;;;;;;;8.52;2.22;;;15.40;64.60;;;;;;10362603;28;20037;-58
2022/10/12 08:24:21;;;;;;;7.60;2.13;;;15.50;64.60;;;;;;10360702;28;20042;-58
2022/10/12 08:29:22;;;;;;;7.85;2.30;;;15.40;65.30;;;;;;10364857;28;20028;-58
2022/10/12 08:34:24;;;;;;;7.97;2.63;;;15.40;64.80;;;;;;10364462;28;20041;-56
2022/10/12 08:39:25;;;;;;;5.97;2.33;;;15.40;65.00;;;;;;10362459;28;20532;-59
2022/10/12 08:44:34;;;;;;;7.32;3.00;;;15.50;65.20;;;;;;10363837;28;20034;-58
2022/10/12 08:49:38;;;;;;;6.93;2.72;;;15.50;65.20;;;;;;10374417;28;20036;-59
2022/10/12 08:54:44;;;;;;;10.95;3.05;;;15.50;65.20;;;;;;10365368;28;20013;-58
2022/10/12 08:59:45;;;;;;;17.17;3.88;;;15.50;65.90;;;;;;10362245;28;20033;-58
2022/10/12 09:05:16;;;;;;;18.35;3.88;;;15.50;65.90;;;;;;10373975;28;20436;-58
2022/10/12 09:10:28;;;;;;;14.70;3.47;;;15.60;66.30;;;;;;10383914;28;20091;-58
2022/10/12 09:16:14;;;;;;;15.93;4.20;;;15.70;67.20;;;;;;10398689;28;20052;-59
2022/10/12 09:21:20;;;;;;;9.20;3.33;;;15.90;66.60;;;;;;10363379;28;20041;-58
2022/10/12 09:26:36;;;;;;;8.35;2.92;;;16.20;66.10;;;;;;10375166;28;20048;-59
2022/10/12 09:32:17;;;;;;;8.18;3.70;;;16.30;65.60;;;;;;10375477;28;20022;-58
2022/10/12 09:37:22;;;;;;;11.25;4.32;;;16.50;66.50;;;;;;10375959;28;20037;-58
2022/10/12 09:42:23;;;;;;;12.98;4.00;;;16.50;67.50;;;;;;10380909;28;20076;-58
2022/10/12 09:47:27;;;;;;;15.52;5.22;;;16.70;69.00;;;;;;10375082;28;20032;-57
2022/10/12 09:52:35;;;;;;;17.77;6.47;;;16.70;70.60;;;;;;10376413;28;20097;-59
2022/10/12 09:57:40;;;;;;;23.63;6.05;;;16.80;71.50;;;;;;10374607;28;20479;-59
2022/10/12 10:02:49;;;;;;;18.75;5.68;;;17.10;68.70;;;;;;10378590;28;20025;-60
2022/10/12 10:07:52;;;;;;;32.00;6.32;;;17.10;68.10;;;;;;10367731;28;20445;-60
2022/10/12 10:13:00;;;;;;;21.20;6.28;;;17.00;68.20;;;;;;10378486;28;20091;-59
2022/10/12 10:18:20;;;;;;;16.65;6.13;;;16.80;67.50;;;;;;10366841;28;20034;-59
2022/10/12 10:23:57;;;;;;;19.55;5.80;;;16.70;67.60;;;;;;10368279;28;20034;-59
2022/10/12 10:29:20;;;;;;;16.40;5.85;;;16.50;67.80;;;;;;10387903;28;20034;-60
2022/10/12 10:34:22;;;;;;;14.32;4.78;;;16.50;67.80;;;;;;10366857;28;20442;-60
2022/10/12 10:39:31;;;;;;;13.18;4.65;;;16.40;68.30;;;;;;10366170;28;20037;-60
2022/10/12 10:44:34;;;;;;;14.17;6.33;;;16.40;68.50;;;;;;10366156;28;20143;-60
2022/10/12 10:49:58;;;;;;;10.18;5.22;;;16.40;68.40;;;;;;10367264;28;20033;-60
2022/10/12 10:55:16;;;;;;;10.48;4.80;;;16.40;68.10;;;;;;10367401;28;20030;-58
2022/10/12 11:00:21;;;;;;;12.63;4.90;;;16.40;68.00;;;;;;10367780;28;20033;-60
2022/10/12 11:05:37;;;;;;;10.60;4.05;;;16.30;68.00;;;;;;10366442;28;20026;-60
2022/10/12 11:10:57;;;;;;;12.15;5.85;;;16.30;68.00;;;;;;10386159;28;20091;-60
2022/10/12 11:16:19;;;;;;;10.05;5.90;;;16.40;68.00;;;;;;10366683;28;20612;-61
2022/10/12 11:21:42;;;;;;;9.57;4.07;;;16.40;67.80;;;;;;10379352;28;20053;-60
2022/10/12 11:26:49;;;;;;;7.60;4.32;;;16.40;67.90;;;;;;10367899;28;20041;-60
2022/10/12 11:32:10;;;;;;;7.03;4.40;;;16.40;67.80;;;;;;10377033;28;20366;-61
2022/10/12 11:37:21;;;;;;;6.20;3.33;;;16.50;67.70;;;;;;10372439;28;20030;-60
2022/10/12 11:42:37;;;;;;;9.38;4.35;;;16.50;67.60;;;;;;10365277;28;20049;-60
2022/10/12 11:47:46;;;;;;;6.43;3.97;;;16.50;67.60;;;;;;10364794;28;20037;-60
2022/10/12 11:52:50;;;;;;;11.33;3.83;;;16.50;67.50;;;;;;10367917;28;20097;-59
2022/10/12 11:57:54;;;;;;;8.38;3.95;;;16.50;67.50;;;;;;10365069;28;20368;-58
2022/10/12 12:03:18;;;;;;;6.57;4.65;;;16.50;67.50;;;;;;10364278;28;20102;-59
2022/10/12 12:08:37;;;;;;;8.90;4.22;;;16.50;67.30;;;;;;10387950;28;20022;-58
2022/10/12 12:13:38;;;;;;;6.37;3.50;;;16.50;67.30;;;;;;10364095;28;20026;-59
2022/10/12 12:19:12;;;;;;;8.77;3.80;;;16.40;67.30;;;;;;10364092;28;20496;-59
2022/10/12 12:24:16;;;;;;;8.27;4.93;;;16.50;67.30;;;;;;10363988;28;20826;-59
2022/10/12 12:29:26;;;;;;;8.48;3.78;;;16.40;67.00;;;;;;10363250;28;20029;-58
2022/10/12 12:34:27;;;;;;;8.85;4.53;;;16.40;67.60;;;;;;10362392;28;20022;-60
2022/10/12 12:39:33;;;;;;;8.18;4.18;;;16.40;67.00;;;;;;10345233;28;20069;-57
2022/10/12 12:44:40;;;;;;;7.53;4.20;;;16.40;67.00;;;;;;10358284;28;20095;-58
2022/10/12 12:50:21;;;;;;;8.40;3.30;;;16.30;67.00;;;;;;10362846;28;20022;-58
2022/10/12 12:55:57;;;;;;;6.57;3.60;;;16.30;67.00;;;;;;10376598;28;20021;-59
2022/10/12 13:01:44;;;;;;;8.32;3.58;;;16.20;67.00;;;;;;10359817;28;20026;-62
2022/10/12 13:07:12;;;;;;;7.47;4.43;;;16.30;67.10;;;;;;10363456;28;20080;-60
2022/10/12 13:12:45;;;;;;;9.18;4.35;;;16.20;66.90;;;;;;10370843;28;20362;-57
2022/10/12 13:18:07;;;;;;;10.85;4.75;;;16.20;67.60;;;;;;10359290;28;20022;-58
2022/10/12 13:23:15;;;;;;;11.05;4.55;;;16.20;66.20;;;;;;10361482;28;20018;-59
2022/10/12 13:28:22;;;;;;;9.07;4.93;;;16.10;65.80;;;;;;10362163;28;20022;-59
2022/10/12 13:33:31;;;;;;;11.18;4.88;;;16.10;65.60;;;;;;10361015;28;20014;-61
2022/10/12 13:38:35;;;;;;;9.02;4.93;;;16.10;65.40;;;;;;10361384;28;20047;-58
2022/10/12 13:43:51;;;;;;;10.52;5.60;;;16.10;65.90;;;;;;10361204;28;20433;-59
2022/10/12 13:48:52;;;;;;;9.93;5.38;;;16.20;67.50;;;;;;10364769;28;20032;-58
2022/10/12 13:53:53;;;;;;;9.25;5.05;;;16.20;67.80;;;;;;10368802;28;20030;-58
2022/10/12 13:59:02;;;;;;;14.73;6.05;;;16.10;66.30;;;;;;10369419;28;20022;-56
2022/10/12 14:04:04;;;;;;;13.93;6.38;;;16.20;67.60;;;;;;10371122;28;20017;-59
2022/10/12 14:09:14;;;;;;;16.15;6.55;;;16.10;66.90;;;;;;10388212;28;20041;-58
2022/10/12 14:14:31;;;;;;;17.45;6.40;;;16.20;67.70;;;;;;10374851;28;20032;-56
2022/10/12 14:19:50;;;;;;;17.50;6.40;;;16.20;67.80;;;;;;10372458;28;20045;-55
2022/10/12 14:25:16;;;;;;;19.95;6.80;;;16.30;67.50;;;;;;10368362;28;20037;-57
2022/10/12 14:30:31;;;;;;;19.77;6.93;;;16.20;67.30;;;;;;10367538;28;20026;-57
2022/10/12 14:35:32;;;;;;;12.55;6.72;;;16.10;67.10;;;;;;10367215;28;20033;-56
2022/10/12 14:40:38;;;;;;;12.30;6.30;;;16.00;67.20;;;;;;10350778;28;20126;-56
2022/10/12 14:45:39;;;;;;;18.75;6.30;;;16.00;67.20;;;;;;10378476;28;20703;-59
2022/10/12 14:50:42;;;;;;;11.77;6.68;;;16.00;67.20;;;;;;10366547;28;20029;-57
2022/10/12 14:55:43;;;;;;;14.77;6.10;;;16.00;67.20;;;;;;10378784;28;20107;-56
2022/10/12 15:00:43;;;;;;;13.82;6.45;;;16.00;67.20;;;;;;10378324;28;20088;-56
2022/10/12 15:05:44;;;;;;;13.13;6.55;;;16.00;67.20;;;;;;10366413;28;20022;-56
2022/10/12 15:10:48;;;;;;;14.52;6.05;;;16.00;67.10;;;;;;10390803;28;20430;-57
2022/10/12 15:15:49;;;;;;;10.98;5.60;;;16.00;67.10;;;;;;10356404;28;20029;-57
2022/10/12 15:20:50;;;;;;;10.57;5.32;;;15.90;67.10;;;;;;10373056;28;20033;-57
2022/10/12 15:25:55;;;;;;;12.55;5.78;;;15.90;67.10;;;;;;10365541;28;20645;-57
2022/10/12 15:30:58;;;;;;;9.30;4.97;;;15.90;67.00;;;;;;10366892;28;20066;-57
2022/10/12 15:35:58;;;;;;;8.63;5.28;;;15.90;67.10;;;;;;10365674;28;20355;-56
2022/10/12 15:40:59;;;;;;;10.35;5.22;;;15.90;67.10;;;;;;10365940;28;20129;-57
2022/10/12 15:46:00;;;;;;;9.02;4.72;;;15.90;67.00;;;;;;10374379;28;20057;-58
2022/10/12 15:51:05;;;;;;;11.82;4.05;;;15.90;67.60;;;;;;10363787;28;20029;-58
2022/10/12 15:56:11;;;;;;;27.73;7.03;;;16.00;67.40;;;;;;10364782;28;20084;-58
2022/10/12 16:01:15;;;;;;;14.50;5.93;;;16.00;68.10;;;;;;10363748;28;20033;-59
2022/10/12 16:06:16;;;;;;;20.27;7.10;;;16.10;68.10;;;;;;10377716;28;20685;-57
2022/10/12 16:11:17;;;;;;;18.13;6.20;;;16.20;70.40;;;;;;10372620;28;20169;-57
2022/10/12 16:16:18;;;;;;;22.17;6.10;;;16.30;69.70;;;;;;10365398;28;20098;-58
2022/10/12 16:21:19;;;;;;;25.10;6.32;;;16.40;69.50;;;;;;10363652;28;20030;-59
2022/10/12 16:26:20;;;;;;;21.17;7.15;;;16.40;69.10;;;;;;10360330;28;20453;-57
2022/10/12 16:31:20;;;;;;;27.42;7.25;;;16.40;69.70;;;;;;10362511;28;20042;-58
2022/10/12 16:36:21;;;;;;;19.40;6.18;;;16.30;69.30;;;;;;10365359;28;20028;-58
2022/10/12 16:41:22;;;;;;;22.30;5.95;;;16.20;69.00;;;;;;10374935;28;20046;-58
2022/10/12 16:46:22;;;;;;;23.50;6.10;;;16.20;69.50;;;;;;10373360;28;20033;-58
2022/10/12 16:51:23;;;;;;;23.38;6.45;;;16.10;69.60;;;;;;10362637;28;20429;-58
2022/10/12 16:56:24;;;;;;;16.95;5.32;;;16.00;69.30;;;;;;10361808;28;20032;-57
2022/10/12 17:01:24;;;;;;;15.90;5.10;;;16.00;69.40;;;;;;10361238;28;20038;-57
2022/10/12 17:06:26;;;;;;;12.50;5.53;;;16.00;69.40;;;;;;10361779;28;20108;-57
2022/10/12 17:11:26;;;;;;;13.02;5.72;;;16.00;69.10;;;;;;10365640;28;20377;-58
2022/10/12 17:21:47;;;;;;;10.10;4.77;;;16.00;69.10;;;;;;10360518;28;20113;-57
2022/10/12 17:26:48;;;;;;;11.55;5.13;;;15.90;68.90;;;;;;10369319;28;20045;-57
2022/10/12 17:31:50;;;;;;;14.43;4.75;;;15.90;68.90;;;;;;10384488;28;20113;-57
2022/10/12 17:36:53;;;;;;;12.30;4.65;;;15.90;68.80;;;;;;10370135;28;20022;-58
2022/10/12 17:41:54;;;;;;;13.10;4.40;;;15.90;68.80;;;;;;10369189;28;20172;-57
2022/10/12 17:46:56;;;;;;;18.15;6.90;;;15.90;69.00;;;;;;10369617;28;20029;-55
2022/10/12 17:51:57;;;;;;;12.38;4.75;;;15.90;68.80;;;;;;10369555;28;20030;-56
2022/10/12 17:56:57;;;;;;;12.45;5.18;;;15.90;69.50;;;;;;10374759;28;20056;-57
2022/10/12 18:01:58;;;;;;;13.57;4.53;;;16.00;69.50;;;;;;10369849;28;20484;-57
2022/10/12 18:06:59;;;;;;;13.05;5.15;;;16.00;69.90;;;;;;10370178;28;20130;-57
2022/10/12 18:11:59;;;;;;;13.98;5.10;;;16.00;69.10;;;;;;10393438;28;20054;-58
2022/10/12 18:17:00;;;;;;;10.23;4.68;;;16.00;69.10;;;;;;10368732;28;20527;-58
2022/10/12 18:22:00;;;;;;;10.75;4.88;;;15.90;69.00;;;;;;10367648;28;20079;-58
2022/10/12 18:27:01;;;;;;;8.68;3.95;;;15.90;69.40;;;;;;10367746;28;20139;-58
2022/10/12 18:32:05;;;;;;;10.18;4.72;;;15.90;69.70;;;;;;10366927;28;20053;-58
2022/10/12 18:37:06;;;;;;;10.10;4.47;;;15.90;69.70;;;;;;10365795;28;20025;-58
2022/10/12 18:42:07;;;;;;;10.20;4.50;;;16.00;70.20;;;;;;10369687;28;20121;-59
2022/10/12 18:47:07;;;;;;;11.25;4.63;;;15.90;69.60;;;;;;10366382;28;20018;-58
2022/10/12 18:52:08;;;;;;;9.60;4.57;;;15.90;69.60;;;;;;10366206;28;20021;-59
2022/10/12 18:57:09;;;;;;;9.88;4.15;;;16.00;69.70;;;;;;10367225;28;20110;-59
2022/10/12 19:02:10;;;;;;;13.52;4.88;;;16.00;69.80;;;;;;10381602;28;20033;-59
2022/10/12 19:07:11;;;;;;;10.15;4.13;;;16.00;69.80;;;;;;10367696;28;20010;-57
2022/10/12 19:12:15;;;;;;;15.75;4.90;;;16.00;69.50;;;;;;10375396;28;20022;-57
2022/10/12 19:17:15;;;;;;;11.18;3.97;;;15.90;69.50;;;;;;10364892;28;20054;-56
2022/10/12 19:22:16;;;;;;;7.85;4.35;;;15.90;69.20;;;;;;10364813;28;20764;-57
2022/10/12 19:27:17;;;;;;;8.68;3.88;;;15.80;69.20;;;;;;10365899;28;20486;-56
2022/10/12 19:32:17;;;;;;;8.70;4.97;;;15.80;69.10;;;;;;10366517;28;20038;-56
2022/10/12 19:37:18;;;;;;;7.28;3.97;;;15.80;69.20;;;;;;10365563;28;20085;-56
2022/10/12 19:42:19;;;;;;;5.72;3.80;;;15.80;69.30;;;;;;10362375;28;20060;-56
2022/10/12 19:47:20;;;;;;;7.88;3.53;;;15.80;69.30;;;;;;10361588;28;20124;-56
2022/10/12 19:52:21;;;;;;;9.68;4.70;;;15.80;69.30;;;;;;10363932;28;20096;-57
2022/10/12 19:57:22;;;;;;;7.35;4.00;;;15.80;69.30;;;;;;10364010;28;20361;-56
2022/10/12 20:02:23;;;;;;;6.35;3.63;;;15.80;69.20;;;;;;10364120;28;20022;-57
2022/10/12 20:07:24;;;;;;;5.93;3.15;;;15.80;69.10;;;;;;10364343;28;20018;-57
2022/10/12 20:12:24;;;;;;;7.05;3.90;;;15.80;69.10;;;;;;10361477;28;20133;-56
2022/10/12 20:17:25;;;;;;;8.82;3.85;;;15.80;69.10;;;;;;10361730;28;20135;-56
2022/10/12 20:22:26;;;;;;;9.05;3.60;;;15.80;69.10;;;;;;10358907;28;20121;-56
2022/10/12 20:27:26;;;;;;;6.57;3.90;;;15.80;69.10;;;;;;10356603;28;20270;-56
2022/10/12 20:32:27;;;;;;;5.20;3.40;;;15.80;69.00;;;;;;10356181;28;20536;-56
2022/10/12 20:37:29;;;;;;;8.40;3.60;;;15.80;69.10;;;;;;10356716;28;20061;-56
2022/10/12 20:42:30;;;;;;;5.47;3.63;;;15.70;69.00;;;;;;10340734;28;20038;-57
2022/10/12 20:47:31;;;;;;;5.43;3.70;;;15.80;69.00;;;;;;10359520;28;20609;-56
2022/10/12 20:52:31;;;;;;;7.40;3.45;;;15.70;68.90;;;;;;10360825;28;20022;-57
2022/10/12 20:57:32;;;;;;;6.60;4.35;;;15.70;68.90;;;;;;10357935;28;20046;-55
2022/10/12 21:02:33;;;;;;;6.05;3.80;;;15.70;68.90;;;;;;10359004;28;20426;-56
2022/10/12 21:07:34;;;;;;;8.52;3.60;;;15.70;68.90;;;;;;10359669;28;20100;-57
2022/10/12 21:12:35;;;;;;;6.00;4.18;;;15.70;68.90;;;;;;10367395;28;20022;-55
2022/10/12 21:17:36;;;;;;;4.88;3.42;;;15.70;68.90;;;;;;10359285;28;20056;-57
2022/10/12 21:22:36;;;;;;;6.93;3.35;;;15.70;68.90;;;;;;10359670;28;20293;-57
2022/10/12 21:27:37;;;;;;;5.75;3.70;;;15.70;68.90;;;;;;10358326;28;20022;-56
2022/10/12 21:32:38;;;;;;;4.25;3.22;;;15.70;68.90;;;;;;10358449;28;20021;-56
2022/10/12 21:37:38;;;;;;;6.07;3.38;;;15.70;68.90;;;;;;10358164;28;20188;-56
2022/10/12 21:42:39;;;;;;;5.90;3.78;;;15.70;68.90;;;;;;10358339;28;20057;-56
2022/10/12 21:47:39;;;;;;;5.32;3.78;;;15.70;68.90;;;;;;10360082;28;20061;-55
2022/10/12 21:52:40;;;;;;;4.82;3.10;;;15.70;68.90;;;;;;10359866;28;20097;-57
2022/10/12 21:57:41;;;;;;;6.57;3.42;;;15.70;68.80;;;;;;10374144;28;20041;-56
2022/10/12 22:02:41;;;;;;;6.90;3.00;;;15.70;68.90;;;;;;10359232;28;20312;-56
2022/10/12 22:07:42;;;;;;;5.20;3.72;;;15.70;68.90;;;;;;10360970;28;20122;-56
2022/10/12 22:12:43;;;;;;;5.97;3.88;;;15.70;68.80;;;;;;10371108;28;20026;-56
2022/10/12 22:17:44;;;;;;;6.22;3.70;;;15.70;68.80;;;;;;10380746;28;20081;-55
2022/10/12 22:22:44;;;;;;;6.40;3.67;;;15.70;68.80;;;;;;10365991;28;20097;-56
2022/10/12 22:27:45;;;;;;;5.78;3.60;;;15.70;68.80;;;;;;10365501;28;20117;-56
2022/10/12 22:32:46;;;;;;;7.88;3.75;;;15.70;68.80;;;;;;10366122;28;20807;-56
2022/10/12 22:37:47;;;;;;;5.05;3.28;;;15.70;68.80;;;;;;10364726;28;20500;-57
2022/10/12 22:42:48;;;;;;;6.22;3.17;;;15.70;68.90;;;;;;10363252;28;20104;-56
2022/10/12 22:47:48;;;;;;;5.03;2.88;;;15.70;68.80;;;;;;10363501;28;20504;-57
2022/10/12 22:52:49;;;;;;;6.15;3.47;;;15.70;68.80;;;;;;10365044;28;20057;-56
2022/10/12 22:57:49;;;;;;;4.82;3.50;;;15.60;68.70;;;;;;10364235;28;20061;-56
2022/10/12 23:02:50;;;;;;;4.75;3.50;;;15.70;68.80;;;;;;10364769;28;20049;-57
2022/10/12 23:07:51;;;;;;;5.45;3.53;;;15.60;68.70;;;;;;10370655;28;20026;-57
2022/10/12 23:12:51;;;;;;;5.07;3.17;;;15.70;68.80;;;;;;10373419;28;20026;-56
2022/10/12 23:17:53;;;;;;;3.50;2.70;;;15.60;68.70;;;;;;10366091;28;20452;-56
2022/10/12 23:22:53;;;;;;;5.55;3.78;;;15.60;68.70;;;;;;10365864;28;20030;-56
2022/10/12 23:27:54;;;;;;;5.63;3.45;;;15.70;68.70;;;;;;10365802;28;20107;-56
2022/10/12 23:32:55;;;;;;;4.97;3.45;;;15.70;68.80;;;;;;10380947;28;20109;-56
2022/10/12 23:37:55;;;;;;;4.53;2.88;;;15.60;68.70;;;;;;10365481;28;20026;-57
2022/10/12 23:42:56;;;;;;;3.80;2.80;;;15.70;68.80;;;;;;10366700;28;20085;-60
2022/10/12 23:47:57;;;;;;;4.60;2.83;;;15.60;68.80;;;;;;10369869;28;20116;-56
2022/10/12 23:52:57;;;;;;;6.00;3.30;;;15.60;68.90;;;;;;10376694;28;20690;-57
2022/10/12 23:57:58;;;;;;;4.70;2.97;;;15.60;68.90;;;;;;10366425;28;20113;-56
